EZY75FA EGGD-LEAL
Flight info
| Callsign | EZY75FA |
|---|---|
| Flight time | N/A |
| Altitude | 34000 |
| Route | EXMOR N92 DAWLY DCT BHD DCT SALCO DCT NENEM/N0452F370 P152 PPN/N0452F360 M176 CLS |
| Aircraft | A320/M-SDE3FGHIRWY/LB1 |
Departure
| Time | 2026-05-07 14:11 |
|---|---|
| Airport | Bristol Airport (EGGD) |
Arrival
| Time | N/A |
|---|---|
| Airport | Alicante-Elche Miguel Hernández Airport (LEAL) |
| Time | Latitude | Longitude | Altitude | Speed | Heading |
|---|---|---|---|---|---|
| 2026-05-07 13:40 | 51.38550 | -2.71406 | 607 ft | 0 kts | 356° |
| 2026-05-07 13:41 | 51.38553 | -2.71407 | 612 ft | 0 kts | 356° |
| 2026-05-07 14:02 | 51.38548 | -2.71406 | 612 ft | 3 kts | 356° |
| 2026-05-07 14:03 | 51.38527 | -2.71404 | 626 ft | 3 kts | 356° |
| 2026-05-07 14:03 | 51.38506 | -2.71401 | 622 ft | 3 kts | 356° |
| 2026-05-07 14:03 | 51.38485 | -2.71399 | 624 ft | 3 kts | 356° |
| 2026-05-07 14:03 | 51.38468 | -2.71397 | 623 ft | 3 kts | 341° |
| 2026-05-07 14:04 | 51.38452 | -2.71381 | 622 ft | 3 kts | 297° |
| 2026-05-07 14:04 | 51.38447 | -2.71352 | 625 ft | 2 kts | 266° |
| 2026-05-07 14:04 | 51.38448 | -2.71323 | 627 ft | 0 kts | 266° |
| 2026-05-07 14:06 | 51.38448 | -2.71326 | 626 ft | 1 kts | 266° |
| 2026-05-07 14:06 | 51.38447 | -2.71355 | 625 ft | 4 kts | 266° |
| 2026-05-07 14:07 | 51.38444 | -2.71436 | 624 ft | 10 kts | 266° |
| 2026-05-07 14:07 | 51.38440 | -2.71583 | 611 ft | 15 kts | 268° |
| 2026-05-07 14:07 | 51.38433 | -2.71771 | 606 ft | 18 kts | 266° |
| 2026-05-07 14:07 | 51.38431 | -2.71974 | 606 ft | 19 kts | 269° |
| 2026-05-07 14:08 | 51.38424 | -2.72172 | 618 ft | 17 kts | 267° |
| 2026-05-07 14:08 | 51.38418 | -2.72352 | 614 ft | 16 kts | 266° |
| 2026-05-07 14:08 | 51.38411 | -2.72538 | 620 ft | 18 kts | 267° |
| 2026-05-07 14:08 | 51.38403 | -2.72744 | 619 ft | 19 kts | 266° |
| 2026-05-07 14:09 | 51.38395 | -2.72959 | 618 ft | 20 kts | 266° |
| 2026-05-07 14:09 | 51.38387 | -2.73180 | 615 ft | 13 kts | 266° |
| 2026-05-07 14:09 | 51.38351 | -2.73318 | 624 ft | 15 kts | 215° |
| 2026-05-07 14:09 | 51.38266 | -2.73340 | 622 ft | 8 kts | 173° |
| 2026-05-07 14:10 | 51.38239 | -2.73324 | 624 ft | 4 kts | 151° |
| 2026-05-07 14:10 | 51.38215 | -2.73257 | 625 ft | 9 kts | 94° |
| 2026-05-07 14:10 | 51.38216 | -2.73221 | 628 ft | 0 kts | 86° |
| 2026-05-07 14:10 | 51.38217 | -2.73211 | 629 ft | 6 kts | 86° |
| 2026-05-07 14:11 | 51.38230 | -2.72886 | 625 ft | 65 kts | 86° |
| 2026-05-07 14:11 | 51.38273 | -2.71772 | 619 ft | 133 kts | 85° |
| 2026-05-07 14:11 | 51.38374 | -2.70043 | 854 ft | 163 kts | 83° |
| 2026-05-07 14:11 | 51.38499 | -2.68246 | 1593 ft | 163 kts | 88° |
| 2026-05-07 14:12 | 51.38574 | -2.66385 | 2242 ft | 176 kts | 91° |
| 2026-05-07 14:12 | 51.38612 | -2.64315 | 2581 ft | 198 kts | 91° |
| 2026-05-07 14:12 | 51.38647 | -2.61979 | 2879 ft | 222 kts | 91° |
| 2026-05-07 14:12 | 51.38694 | -2.59365 | 3305 ft | 248 kts | 91° |
| 2026-05-07 14:13 | 51.38662 | -2.56536 | 4048 ft | 259 kts | 104° |
| 2026-05-07 14:13 | 51.37934 | -2.53895 | 4881 ft | 260 kts | 130° |
| 2026-05-07 14:13 | 51.36561 | -2.52052 | 5743 ft | 260 kts | 155° |
| 2026-05-07 14:13 | 51.34817 | -2.51353 | 6591 ft | 263 kts | 181° |
| 2026-05-07 14:14 | 51.33036 | -2.51985 | 7423 ft | 266 kts | 206° |
| 2026-05-07 14:14 | 51.31604 | -2.53862 | 8255 ft | 271 kts | 233° |
| 2026-05-07 14:14 | 51.30855 | -2.56637 | 9099 ft | 278 kts | 259° |
| 2026-05-07 14:14 | 51.30706 | -2.59736 | 9961 ft | 282 kts | 265° |
| 2026-05-07 14:15 | 51.30512 | -2.62901 | 10465 ft | 295 kts | 257° |
| 2026-05-07 14:15 | 51.30091 | -2.66247 | 10688 ft | 319 kts | 256° |
| 2026-05-07 14:15 | 51.29631 | -2.69829 | 10962 ft | 337 kts | 256° |
| 2026-05-07 14:15 | 51.29152 | -2.73546 | 11581 ft | 344 kts | 256° |
| 2026-05-07 14:16 | 51.28775 | -2.77358 | 12272 ft | 350 kts | 263° |
| 2026-05-07 14:16 | 51.28684 | -2.81260 | 12979 ft | 355 kts | 269° |
| 2026-05-07 14:16 | 51.28767 | -2.85231 | 13691 ft | 359 kts | 271° |
| 2026-05-07 14:16 | 51.28921 | -2.89238 | 14329 ft | 363 kts | 272° |
| 2026-05-07 14:17 | 51.29082 | -2.93271 | 14969 ft | 366 kts | 271° |
| 2026-05-07 14:17 | 51.29217 | -2.97358 | 15613 ft | 368 kts | 271° |
| 2026-05-07 14:17 | 51.29125 | -3.01422 | 16238 ft | 368 kts | 258° |
| 2026-05-07 14:17 | 51.28363 | -3.05278 | 16844 ft | 369 kts | 245° |
| 2026-05-07 14:18 | 51.27161 | -3.08965 | 17472 ft | 371 kts | 239° |
| 2026-05-07 14:18 | 51.25818 | -3.12432 | 18070 ft | 373 kts | 237° |
| 2026-05-07 14:18 | 51.24430 | -3.15958 | 18616 ft | 376 kts | 238° |
| 2026-05-07 14:18 | 51.23090 | -3.19554 | 19122 ft | 378 kts | 240° |
| 2026-05-07 14:19 | 51.21818 | -3.23236 | 19612 ft | 381 kts | 242° |
| 2026-05-07 14:19 | 51.20592 | -3.26986 | 20102 ft | 384 kts | 240° |
| 2026-05-07 14:19 | 51.19097 | -3.30519 | 20580 ft | 386 kts | 229° |
| 2026-05-07 14:19 | 51.17143 | -3.33485 | 21063 ft | 389 kts | 217° |
| 2026-05-07 14:20 | 51.14796 | -3.35661 | 21525 ft | 392 kts | 204° |
| 2026-05-07 14:20 | 51.12165 | -3.36935 | 21989 ft | 397 kts | 191° |
| 2026-05-07 14:20 | 51.09422 | -3.37451 | 22449 ft | 400 kts | 187° |
| 2026-05-07 14:20 | 51.06646 | -3.37912 | 22911 ft | 403 kts | 187° |
| 2026-05-07 14:21 | 51.03852 | -3.38393 | 23377 ft | 405 kts | 187° |
| 2026-05-07 14:21 | 51.01042 | -3.38886 | 23801 ft | 407 kts | 188° |
| 2026-05-07 14:21 | 50.98221 | -3.39381 | 24191 ft | 410 kts | 187° |
| 2026-05-07 14:21 | 50.95373 | -3.39880 | 24559 ft | 412 kts | 187° |
| 2026-05-07 14:22 | 50.92518 | -3.40377 | 24934 ft | 414 kts | 187° |
| 2026-05-07 14:22 | 50.89652 | -3.40873 | 25303 ft | 416 kts | 187° |
| 2026-05-07 14:22 | 50.86770 | -3.41370 | 25660 ft | 418 kts | 187° |
| 2026-05-07 14:22 | 50.83871 | -3.41871 | 26015 ft | 420 kts | 187° |
| 2026-05-07 14:23 | 50.80958 | -3.42373 | 26373 ft | 422 kts | 187° |
| 2026-05-07 14:23 | 50.78033 | -3.42874 | 26722 ft | 424 kts | 187° |
| 2026-05-07 14:23 | 50.76041 | -3.43217 | 26963 ft | 425 kts | 187° |
| 2026-05-07 14:23 | 50.73128 | -3.43717 | 27288 ft | 427 kts | 187° |
| 2026-05-07 14:24 | 50.70131 | -3.44232 | 27630 ft | 430 kts | 187° |
| 2026-05-07 14:24 | 50.67143 | -3.44748 | 27959 ft | 432 kts | 187° |
| 2026-05-07 14:24 | 50.64152 | -3.45264 | 28272 ft | 433 kts | 187° |
| 2026-05-07 14:24 | 50.61156 | -3.45779 | 28576 ft | 435 kts | 187° |
| 2026-05-07 14:25 | 50.58129 | -3.46293 | 28885 ft | 437 kts | 187° |
| 2026-05-07 14:25 | 50.55105 | -3.46800 | 29177 ft | 439 kts | 187° |
| 2026-05-07 14:25 | 50.52090 | -3.47305 | 29462 ft | 441 kts | 187° |
| 2026-05-07 14:25 | 50.49291 | -3.47774 | 29759 ft | 441 kts | 187° |
| 2026-05-07 14:26 | 50.45950 | -3.48334 | 30199 ft | 440 kts | 187° |
| 2026-05-07 14:26 | 50.42950 | -3.48841 | 30543 ft | 439 kts | 187° |
| 2026-05-07 14:26 | 50.39876 | -3.49362 | 30897 ft | 438 kts | 187° |
| 2026-05-07 14:26 | 50.36886 | -3.49732 | 31233 ft | 437 kts | 185° |
| 2026-05-07 14:27 | 50.33808 | -3.49946 | 31580 ft | 436 kts | 183° |
| 2026-05-07 14:27 | 50.30820 | -3.50058 | 31917 ft | 435 kts | 182° |
| 2026-05-07 14:27 | 50.27784 | -3.50136 | 32263 ft | 434 kts | 182° |
| 2026-05-07 14:27 | 50.24774 | -3.50221 | 32609 ft | 433 kts | 182° |
| 2026-05-07 14:28 | 50.21748 | -3.50336 | 32945 ft | 433 kts | 183° |
| 2026-05-07 14:28 | 50.18749 | -3.50479 | 33284 ft | 432 kts | 183° |
| 2026-05-07 14:28 | 50.15751 | -3.50644 | 33615 ft | 431 kts | 184° |
| 2026-05-07 14:28 | 50.12760 | -3.50822 | 33943 ft | 430 kts | 184° |
| 2026-05-07 14:29 | 50.09759 | -3.51000 | 34023 ft | 430 kts | 184° |
| 2026-05-07 14:29 | 50.03786 | -3.51336 | 34031 ft | 430 kts | 184° |
| 2026-05-07 14:30 | 49.97811 | -3.51661 | 34027 ft | 430 kts | 184° |
| 2026-05-07 14:30 | 49.92028 | -3.51972 | 34026 ft | 430 kts | 183° |
| 2026-05-07 14:31 | 49.85854 | -3.52293 | 34023 ft | 429 kts | 183° |
| 2026-05-07 14:31 | 49.79879 | -3.52610 | 34026 ft | 429 kts | 183° |
| 2026-05-07 14:32 | 49.73922 | -3.52926 | 34014 ft | 429 kts | 182° |
| 2026-05-07 14:32 | 49.67954 | -3.52779 | 34013 ft | 429 kts | 179° |
| 2026-05-07 14:33 | 49.61996 | -3.52196 | 34011 ft | 429 kts | 178° |
| 2026-05-07 14:33 | 49.56037 | -3.51622 | 34012 ft | 429 kts | 178° |
| 2026-05-07 14:34 | 49.50076 | -3.51166 | 34010 ft | 428 kts | 179° |
| 2026-05-07 14:34 | 49.44111 | -3.50760 | 34015 ft | 428 kts | 179° |
| 2026-05-07 14:35 | 49.38156 | -3.50345 | 34010 ft | 428 kts | 179° |
| 2026-05-07 14:35 | 49.32211 | -3.49907 | 34013 ft | 428 kts | 178° |
| 2026-05-07 14:36 | 49.26272 | -3.49465 | 34006 ft | 427 kts | 179° |
| 2026-05-07 14:36 | 49.20341 | -3.49033 | 34000 ft | 427 kts | 179° |
| 2026-05-07 14:37 | 49.14403 | -3.48600 | 34004 ft | 427 kts | 179° |
| 2026-05-07 14:37 | 49.05478 | -3.47959 | 33999 ft | 427 kts | 178° |
| 2026-05-07 14:38 | 48.99578 | -3.47522 | 34000 ft | 427 kts | 178° |
| 2026-05-07 14:38 | 48.93647 | -3.47094 | 34000 ft | 426 kts | 178° |
| 2026-05-07 14:39 | 48.87718 | -3.46679 | 33995 ft | 427 kts | 179° |
| 2026-05-07 14:39 | 48.81784 | -3.46255 | 34000 ft | 427 kts | 178° |
| 2026-05-07 14:40 | 48.75845 | -3.45827 | 34000 ft | 427 kts | 178° |
| 2026-05-07 14:40 | 48.69913 | -3.45400 | 34003 ft | 426 kts | 178° |
| 2026-05-07 14:41 | 48.63995 | -3.44983 | 34001 ft | 426 kts | 179° |
| 2026-05-07 14:41 | 48.58062 | -3.44560 | 33992 ft | 426 kts | 179° |
| 2026-05-07 14:42 | 48.52174 | -3.44141 | 33987 ft | 426 kts | 179° |
| 2026-05-07 14:42 | 48.46223 | -3.43719 | 33981 ft | 426 kts | 179° |
| 2026-05-07 14:43 | 48.40301 | -3.43299 | 33983 ft | 426 kts | 179° |
| 2026-05-07 14:43 | 48.34422 | -3.42882 | 33987 ft | 426 kts | 179° |
| 2026-05-07 14:44 | 48.28492 | -3.42465 | 33985 ft | 426 kts | 179° |
| 2026-05-07 14:44 | 48.22556 | -3.42062 | 33986 ft | 426 kts | 179° |
| 2026-05-07 14:45 | 48.16634 | -3.41650 | 33987 ft | 426 kts | 179° |
| 2026-05-07 14:45 | 48.10698 | -3.41231 | 33988 ft | 426 kts | 179° |
| 2026-05-07 14:46 | 48.04766 | -3.40816 | 33991 ft | 427 kts | 179° |
| 2026-05-07 14:46 | 47.98842 | -3.40404 | 33992 ft | 427 kts | 179° |
| 2026-05-07 14:47 | 47.92902 | -3.39997 | 33989 ft | 427 kts | 179° |
| 2026-05-07 14:47 | 47.86976 | -3.39592 | 33989 ft | 427 kts | 179° |
| 2026-05-07 14:48 | 47.81041 | -3.39188 | 33985 ft | 427 kts | 179° |
| 2026-05-07 14:48 | 47.75103 | -3.38773 | 33989 ft | 427 kts | 179° |
| 2026-05-07 14:49 | 47.69200 | -3.38358 | 33985 ft | 427 kts | 179° |
| 2026-05-07 14:49 | 47.63231 | -3.37953 | 33986 ft | 427 kts | 179° |
| 2026-05-07 14:50 | 47.57301 | -3.37551 | 33992 ft | 427 kts | 179° |
| 2026-05-07 14:50 | 47.51366 | -3.37146 | 33995 ft | 427 kts | 179° |
| 2026-05-07 14:51 | 47.45465 | -3.36748 | 34000 ft | 427 kts | 179° |
| 2026-05-07 14:51 | 47.39483 | -3.36347 | 33999 ft | 427 kts | 179° |
| 2026-05-07 14:52 | 47.33546 | -3.35947 | 34002 ft | 427 kts | 179° |
| 2026-05-07 14:52 | 47.27608 | -3.35543 | 33999 ft | 427 kts | 178° |
| 2026-05-07 14:53 | 47.21699 | -3.35140 | 33999 ft | 427 kts | 178° |
| 2026-05-07 14:53 | 47.15727 | -3.34737 | 33996 ft | 427 kts | 179° |
| 2026-05-07 14:54 | 47.09816 | -3.34346 | 33996 ft | 427 kts | 179° |
| 2026-05-07 14:54 | 47.03880 | -3.33949 | 33996 ft | 427 kts | 178° |
| 2026-05-07 14:55 | 46.97944 | -3.33553 | 33999 ft | 427 kts | 178° |
| 2026-05-07 14:55 | 46.92011 | -3.33163 | 33996 ft | 427 kts | 179° |
| 2026-05-07 14:56 | 46.86069 | -3.32766 | 33995 ft | 427 kts | 178° |
| 2026-05-07 14:56 | 46.80138 | -3.32366 | 33994 ft | 426 kts | 179° |
| 2026-05-07 14:57 | 46.74212 | -3.31973 | 33992 ft | 426 kts | 179° |
| 2026-05-07 14:57 | 46.68286 | -3.31587 | 33992 ft | 426 kts | 179° |
| 2026-05-07 14:58 | 46.62355 | -3.31196 | 33987 ft | 426 kts | 179° |
| 2026-05-07 14:58 | 46.56432 | -3.30804 | 33988 ft | 426 kts | 179° |
| 2026-05-07 14:59 | 46.50511 | -3.30417 | 33988 ft | 426 kts | 179° |
| 2026-05-07 14:59 | 46.44593 | -3.30021 | 33984 ft | 426 kts | 179° |
| 2026-05-07 15:00 | 46.38676 | -3.29641 | 33985 ft | 425 kts | 179° |
| 2026-05-07 15:00 | 46.32757 | -3.29268 | 33981 ft | 425 kts | 179° |
| 2026-05-07 15:01 | 46.26873 | -3.28874 | 33978 ft | 425 kts | 179° |
| 2026-05-07 15:01 | 46.20976 | -3.28482 | 33985 ft | 425 kts | 179° |
| 2026-05-07 15:02 | 46.15072 | -3.28102 | 33982 ft | 424 kts | 179° |
| 2026-05-07 15:02 | 46.09169 | -3.27729 | 33985 ft | 424 kts | 179° |
| 2026-05-07 15:03 | 46.04268 | -3.27417 | 33984 ft | 424 kts | 179° |
| 2026-05-07 15:03 | 45.98377 | -3.27029 | 33979 ft | 423 kts | 179° |
| 2026-05-07 15:04 | 45.92489 | -3.26645 | 33978 ft | 423 kts | 179° |
| 2026-05-07 15:04 | 45.86618 | -3.26272 | 33976 ft | 423 kts | 179° |
| 2026-05-07 15:05 | 45.80730 | -3.25906 | 33977 ft | 422 kts | 179° |
| 2026-05-07 15:05 | 45.74859 | -3.25531 | 33971 ft | 422 kts | 179° |
| 2026-05-07 15:06 | 45.68998 | -3.25159 | 33972 ft | 422 kts | 179° |
| 2026-05-07 15:06 | 45.63127 | -3.24784 | 33966 ft | 422 kts | 179° |
| 2026-05-07 15:07 | 45.57256 | -3.24418 | 33965 ft | 422 kts | 179° |
| 2026-05-07 15:07 | 45.51394 | -3.24040 | 33961 ft | 422 kts | 179° |
| 2026-05-07 15:08 | 45.45523 | -3.23662 | 33958 ft | 422 kts | 179° |
| 2026-05-07 15:08 | 45.39655 | -3.23292 | 33959 ft | 422 kts | 179° |
| 2026-05-07 15:09 | 45.33792 | -3.22918 | 33953 ft | 422 kts | 179° |
| 2026-05-07 15:09 | 45.27924 | -3.22551 | 33951 ft | 422 kts | 180° |
| 2026-05-07 15:10 | 45.22060 | -3.22194 | 33950 ft | 422 kts | 180° |
| 2026-05-07 15:10 | 45.16188 | -3.21829 | 33953 ft | 422 kts | 179° |
| 2026-05-07 15:11 | 45.10330 | -3.21459 | 33950 ft | 421 kts | 180° |
| 2026-05-07 15:11 | 45.04462 | -3.21088 | 33950 ft | 421 kts | 180° |
| 2026-05-07 15:12 | 44.98617 | -3.20730 | 33951 ft | 421 kts | 180° |
| 2026-05-07 15:12 | 44.92770 | -3.20372 | 33946 ft | 420 kts | 180° |
| 2026-05-07 15:13 | 44.86959 | -3.20002 | 33940 ft | 420 kts | 180° |
| 2026-05-07 15:13 | 44.81127 | -3.19643 | 33944 ft | 420 kts | 180° |
| 2026-05-07 15:14 | 44.75280 | -3.19287 | 33938 ft | 419 kts | 180° |
| 2026-05-07 15:14 | 44.69453 | -3.18927 | 33935 ft | 419 kts | 180° |
| 2026-05-07 15:15 | 44.63630 | -3.18570 | 33932 ft | 419 kts | 180° |
| 2026-05-07 15:15 | 44.57801 | -3.18209 | 33928 ft | 419 kts | 180° |
| 2026-05-07 15:16 | 44.51971 | -3.17854 | 33927 ft | 419 kts | 180° |
| 2026-05-07 15:16 | 44.46143 | -3.17507 | 33921 ft | 419 kts | 180° |
| 2026-05-07 15:17 | 44.40314 | -3.17157 | 33922 ft | 419 kts | 180° |
| 2026-05-07 15:17 | 44.34493 | -3.16801 | 33913 ft | 420 kts | 180° |
| 2026-05-07 15:18 | 44.28639 | -3.16447 | 33914 ft | 420 kts | 180° |
| 2026-05-07 15:18 | 44.22799 | -3.16095 | 33910 ft | 421 kts | 180° |
| 2026-05-07 15:19 | 44.16949 | -3.15747 | 33905 ft | 421 kts | 180° |
| 2026-05-07 15:19 | 44.11087 | -3.15391 | 33902 ft | 422 kts | 180° |
| 2026-05-07 15:20 | 44.05316 | -3.13789 | 33897 ft | 429 kts | 161° |
| 2026-05-07 15:20 | 44.00171 | -3.09431 | 33896 ft | 438 kts | 144° |
| 2026-05-07 15:21 | 43.95452 | -3.04085 | 33892 ft | 439 kts | 145° |
| 2026-05-07 15:21 | 43.90697 | -2.98753 | 33890 ft | 439 kts | 145° |
| 2026-05-07 15:22 | 43.85943 | -2.93425 | 33890 ft | 439 kts | 145° |
| 2026-05-07 15:22 | 43.81178 | -2.88101 | 33888 ft | 440 kts | 145° |
| 2026-05-07 15:23 | 43.76424 | -2.82793 | 33885 ft | 440 kts | 145° |
| 2026-05-07 15:23 | 43.71662 | -2.77475 | 33880 ft | 440 kts | 145° |
| 2026-05-07 15:24 | 43.66911 | -2.72169 | 33883 ft | 439 kts | 145° |
| 2026-05-07 15:24 | 43.62144 | -2.66865 | 33877 ft | 439 kts | 145° |
| 2026-05-07 15:25 | 43.57375 | -2.61582 | 33873 ft | 439 kts | 145° |
| 2026-05-07 15:25 | 43.52641 | -2.56349 | 33876 ft | 439 kts | 145° |
| 2026-05-07 15:26 | 43.47873 | -2.51076 | 33871 ft | 440 kts | 145° |
| 2026-05-07 15:26 | 43.43077 | -2.45782 | 33874 ft | 439 kts | 145° |
| 2026-05-07 15:27 | 43.38289 | -2.40534 | 33879 ft | 439 kts | 145° |
| 2026-05-07 15:27 | 43.33548 | -2.35331 | 33879 ft | 439 kts | 145° |
| 2026-05-07 15:28 | 43.28772 | -2.30100 | 33884 ft | 439 kts | 145° |
| 2026-05-07 15:28 | 43.23999 | -2.24886 | 33880 ft | 438 kts | 145° |
| 2026-05-07 15:29 | 43.19236 | -2.19682 | 33887 ft | 438 kts | 145° |
| 2026-05-07 15:29 | 43.14433 | -2.14455 | 33899 ft | 437 kts | 145° |
| 2026-05-07 15:30 | 43.09697 | -2.09323 | 33899 ft | 437 kts | 145° |
| 2026-05-07 15:30 | 43.04940 | -2.04168 | 33892 ft | 436 kts | 145° |
| 2026-05-07 15:31 | 43.00178 | -1.99015 | 33893 ft | 436 kts | 145° |
| 2026-05-07 15:31 | 42.95419 | -1.93879 | 33896 ft | 436 kts | 145° |
| 2026-05-07 15:32 | 42.90656 | -1.88756 | 33896 ft | 436 kts | 145° |
| 2026-05-07 15:32 | 42.85895 | -1.83633 | 33901 ft | 436 kts | 145° |
| 2026-05-07 15:33 | 42.81130 | -1.78508 | 33890 ft | 436 kts | 145° |
| 2026-05-07 15:33 | 42.76353 | -1.73429 | 33906 ft | 434 kts | 149° |
| 2026-05-07 15:34 | 42.71000 | -1.69891 | 33896 ft | 426 kts | 167° |
| 2026-05-07 15:34 | 42.65211 | -1.68384 | 33905 ft | 423 kts | 173° |
| 2026-05-07 15:35 | 42.59400 | -1.67100 | 33891 ft | 423 kts | 173° |
| 2026-05-07 15:35 | 42.53571 | -1.65802 | 33891 ft | 424 kts | 173° |
| 2026-05-07 15:36 | 42.47759 | -1.64517 | 33893 ft | 424 kts | 173° |
| 2026-05-07 15:36 | 42.41931 | -1.63228 | 33894 ft | 424 kts | 173° |
| 2026-05-07 15:37 | 42.36106 | -1.61943 | 33906 ft | 424 kts | 173° |
| 2026-05-07 15:37 | 42.30273 | -1.60662 | 33907 ft | 424 kts | 173° |
| 2026-05-07 15:38 | 42.24443 | -1.59380 | 33903 ft | 425 kts | 173° |
| 2026-05-07 15:38 | 42.18606 | -1.58100 | 33904 ft | 425 kts | 173° |
| 2026-05-07 15:39 | 42.12773 | -1.56823 | 33907 ft | 425 kts | 173° |
| 2026-05-07 15:39 | 42.06943 | -1.55549 | 33910 ft | 425 kts | 173° |
| 2026-05-07 15:40 | 42.01107 | -1.54276 | 33912 ft | 425 kts | 173° |
| 2026-05-07 15:40 | 41.95280 | -1.53002 | 33920 ft | 425 kts | 173° |
| 2026-05-07 15:41 | 41.90430 | -1.51955 | 33921 ft | 424 kts | 173° |
| 2026-05-07 15:41 | 41.84586 | -1.50692 | 33937 ft | 426 kts | 173° |
| 2026-05-07 15:42 | 41.78738 | -1.49421 | 33933 ft | 424 kts | 173° |
| 2026-05-07 15:42 | 41.72915 | -1.48155 | 33921 ft | 424 kts | 173° |
| 2026-05-07 15:43 | 41.67098 | -1.46907 | 33923 ft | 424 kts | 173° |
| 2026-05-07 15:43 | 41.61258 | -1.45653 | 33925 ft | 425 kts | 173° |
| 2026-05-07 15:44 | 41.55424 | -1.44395 | 33925 ft | 425 kts | 173° |
| 2026-05-07 15:44 | 41.49575 | -1.43135 | 33924 ft | 426 kts | 173° |
| 2026-05-07 15:45 | 41.43713 | -1.41881 | 33923 ft | 427 kts | 173° |
| 2026-05-07 15:45 | 41.37842 | -1.40631 | 33926 ft | 428 kts | 173° |
| 2026-05-07 15:46 | 41.29006 | -1.38736 | 33923 ft | 429 kts | 173° |
| 2026-05-07 15:47 | 41.23103 | -1.37480 | 33924 ft | 431 kts | 173° |
| 2026-05-07 15:47 | 41.17165 | -1.36231 | 33922 ft | 432 kts | 174° |
| 2026-05-07 15:48 | 41.11227 | -1.34980 | 33922 ft | 433 kts | 174° |
| 2026-05-07 15:48 | 41.05255 | -1.33713 | 33933 ft | 434 kts | 174° |
| 2026-05-07 15:49 | 40.99287 | -1.32450 | 33934 ft | 435 kts | 174° |
| 2026-05-07 15:49 | 40.93303 | -1.31183 | 33942 ft | 435 kts | 174° |
| 2026-05-07 15:50 | 40.87362 | -1.29937 | 33952 ft | 436 kts | 174° |
| 2026-05-07 15:50 | 40.81395 | -1.28492 | 33954 ft | 437 kts | 171° |
| 2026-05-07 15:51 | 40.75403 | -1.26780 | 33965 ft | 437 kts | 171° |
| 2026-05-07 15:51 | 40.69493 | -1.25090 | 33965 ft | 437 kts | 171° |
| 2026-05-07 15:52 | 40.63543 | -1.23454 | 33979 ft | 437 kts | 172° |
| 2026-05-07 15:52 | 40.57544 | -1.21856 | 33985 ft | 437 kts | 172° |
| 2026-05-07 15:53 | 40.51625 | -1.20269 | 33989 ft | 438 kts | 172° |
| 2026-05-07 15:53 | 40.45650 | -1.18643 | 33985 ft | 438 kts | 172° |
| 2026-05-07 15:54 | 40.39678 | -1.17019 | 33985 ft | 438 kts | 172° |
| 2026-05-07 15:54 | 40.33715 | -1.15412 | 33979 ft | 438 kts | 172° |
| 2026-05-07 15:55 | 40.27733 | -1.13813 | 33977 ft | 438 kts | 173° |
| 2026-05-07 15:55 | 40.21746 | -1.12207 | 33975 ft | 439 kts | 173° |
| 2026-05-07 15:56 | 40.15763 | -1.10603 | 33965 ft | 439 kts | 173° |
| 2026-05-07 15:56 | 40.09781 | -1.09008 | 33958 ft | 439 kts | 173° |
| 2026-05-07 15:57 | 40.03785 | -1.07410 | 33941 ft | 440 kts | 173° |
| 2026-05-07 15:57 | 39.97784 | -1.05812 | 33927 ft | 440 kts | 173° |
| 2026-05-07 15:58 | 39.91763 | -1.04204 | 33907 ft | 441 kts | 173° |
| 2026-05-07 15:58 | 39.85748 | -1.02606 | 33899 ft | 442 kts | 173° |
| 2026-05-07 15:59 | 39.79700 | -1.01010 | 33894 ft | 443 kts | 173° |
| 2026-05-07 15:59 | 39.73656 | -0.99408 | 33893 ft | 444 kts | 173° |
| 2026-05-07 16:00 | 39.67744 | -0.96801 | 33895 ft | 455 kts | 159° |
| 2026-05-07 16:00 | 39.62029 | -0.93235 | 33085 ft | 459 kts | 159° |
| 2026-05-07 16:00 | 39.59120 | -0.91430 | 31833 ft | 468 kts | 158° |
| 2026-05-07 16:01 | 39.56242 | -0.89648 | 30699 ft | 461 kts | 158° |
| 2026-05-07 16:01 | 39.53332 | -0.87847 | 29388 ft | 453 kts | 158° |
| 2026-05-07 16:01 | 39.50540 | -0.86116 | 28635 ft | 434 kts | 158° |
| 2026-05-07 16:01 | 39.47911 | -0.84481 | 28260 ft | 410 kts | 158° |
| 2026-05-07 16:02 | 39.45365 | -0.82903 | 27609 ft | 400 kts | 158° |
| 2026-05-07 16:02 | 39.42851 | -0.81357 | 27007 ft | 399 kts | 158° |
| 2026-05-07 16:02 | 39.40355 | -0.79830 | 26415 ft | 397 kts | 158° |
| 2026-05-07 16:02 | 39.37862 | -0.78304 | 25814 ft | 395 kts | 158° |
| 2026-05-07 16:03 | 39.35388 | -0.76787 | 25231 ft | 392 kts | 157° |
| 2026-05-07 16:03 | 39.32931 | -0.75278 | 24650 ft | 389 kts | 157° |
| 2026-05-07 16:03 | 39.30497 | -0.73783 | 24085 ft | 387 kts | 157° |
| 2026-05-07 16:03 | 39.28076 | -0.72295 | 23503 ft | 384 kts | 157° |
| 2026-05-07 16:04 | 39.25674 | -0.70815 | 22897 ft | 381 kts | 156° |
| 2026-05-07 16:04 | 39.23290 | -0.69349 | 22372 ft | 378 kts | 156° |
| 2026-05-07 16:04 | 39.20921 | -0.67897 | 21863 ft | 375 kts | 156° |
| 2026-05-07 16:04 | 39.18567 | -0.66455 | 21382 ft | 372 kts | 156° |
| 2026-05-07 16:05 | 39.16237 | -0.65029 | 20914 ft | 370 kts | 156° |
| 2026-05-07 16:05 | 39.13924 | -0.63614 | 20456 ft | 367 kts | 156° |
| 2026-05-07 16:05 | 39.11616 | -0.62203 | 20012 ft | 365 kts | 156° |
| 2026-05-07 16:05 | 39.09317 | -0.60799 | 19550 ft | 365 kts | 156° |
| 2026-05-07 16:06 | 39.07037 | -0.59405 | 19095 ft | 362 kts | 156° |
| 2026-05-07 16:06 | 39.04770 | -0.58018 | 18649 ft | 359 kts | 156° |
| 2026-05-07 16:06 | 39.02539 | -0.56655 | 18209 ft | 357 kts | 156° |
| 2026-05-07 16:06 | 39.00273 | -0.55276 | 17681 ft | 356 kts | 156° |
| 2026-05-07 16:07 | 38.98045 | -0.53921 | 17207 ft | 353 kts | 156° |
| 2026-05-07 16:07 | 38.95826 | -0.52573 | 16738 ft | 351 kts | 156° |
| 2026-05-07 16:07 | 38.93625 | -0.51237 | 16253 ft | 349 kts | 156° |
| 2026-05-07 16:07 | 38.91466 | -0.49927 | 15782 ft | 348 kts | 156° |
| 2026-05-07 16:08 | 38.89280 | -0.48605 | 15294 ft | 347 kts | 156° |
| 2026-05-07 16:08 | 38.87071 | -0.47270 | 14798 ft | 346 kts | 156° |
| 2026-05-07 16:08 | 38.84898 | -0.45956 | 14309 ft | 345 kts | 156° |
| 2026-05-07 16:08 | 38.82728 | -0.44644 | 13824 ft | 345 kts | 156° |
| 2026-05-07 16:09 | 38.80569 | -0.43335 | 13288 ft | 344 kts | 156° |
| 2026-05-07 16:09 | 38.78408 | -0.42024 | 12779 ft | 342 kts | 156° |
| 2026-05-07 16:09 | 38.76258 | -0.40721 | 12268 ft | 340 kts | 156° |
| 2026-05-07 16:09 | 38.74128 | -0.39434 | 11768 ft | 339 kts | 155° |
| 2026-05-07 16:10 | 38.72003 | -0.38153 | 11252 ft | 337 kts | 155° |
| 2026-05-07 16:10 | 38.69874 | -0.36871 | 10739 ft | 336 kts | 155° |
| 2026-05-07 16:10 | 38.67787 | -0.35612 | 10482 ft | 322 kts | 155° |
| 2026-05-07 16:10 | 38.65841 | -0.34436 | 10315 ft | 299 kts | 155° |
| 2026-05-07 16:11 | 38.63996 | -0.33323 | 9899 ft | 289 kts | 155° |
| 2026-05-07 16:11 | 38.62189 | -0.32235 | 9755 ft | 287 kts | 155° |
| 2026-05-07 16:11 | 38.60407 | -0.31161 | 9624 ft | 287 kts | 155° |
| 2026-05-07 16:11 | 38.58580 | -0.30064 | 9496 ft | 287 kts | 155° |
| 2026-05-07 16:12 | 38.56793 | -0.28992 | 9370 ft | 286 kts | 155° |
| 2026-05-07 16:12 | 38.54969 | -0.27894 | 8894 ft | 286 kts | 155° |
| 2026-05-07 16:12 | 38.53182 | -0.26814 | 8292 ft | 282 kts | 154° |
| 2026-05-07 16:12 | 38.51435 | -0.25761 | 7737 ft | 279 kts | 154° |
| 2026-05-07 16:13 | 38.49739 | -0.24747 | 7554 ft | 260 kts | 154° |
| 2026-05-07 16:13 | 38.48148 | -0.23807 | 7354 ft | 243 kts | 156° |
| 2026-05-07 16:13 | 38.47046 | -0.23392 | 7269 ft | 245 kts | 172° |
| 2026-05-07 16:13 | 38.44815 | -0.23683 | 7110 ft | 246 kts | 199° |
| 2026-05-07 16:14 | 38.43208 | -0.24454 | 6899 ft | 248 kts | 200° |
| 2026-05-07 16:14 | 38.41581 | -0.25206 | 6579 ft | 248 kts | 199° |
| 2026-05-07 16:14 | 38.39944 | -0.25948 | 6245 ft | 248 kts | 199° |
| 2026-05-07 16:14 | 38.38329 | -0.26674 | 5913 ft | 248 kts | 198° |
| 2026-05-07 16:15 | 38.36710 | -0.27400 | 5583 ft | 247 kts | 198° |
| 2026-05-07 16:15 | 38.35088 | -0.28126 | 5256 ft | 246 kts | 198° |
| 2026-05-07 16:15 | 38.33475 | -0.28847 | 4928 ft | 246 kts | 198° |
| 2026-05-07 16:15 | 38.31855 | -0.29570 | 4610 ft | 246 kts | 198° |
| 2026-05-07 16:16 | 38.30254 | -0.30275 | 4440 ft | 239 kts | 197° |
| 2026-05-07 16:16 | 38.28701 | -0.30955 | 4641 ft | 243 kts | 198° |
| 2026-05-07 16:16 | 38.27078 | -0.31658 | 4773 ft | 246 kts | 198° |
| 2026-05-07 16:16 | 38.25451 | -0.32360 | 4508 ft | 247 kts | 197° |
| 2026-05-07 16:17 | 38.23821 | -0.33062 | 4503 ft | 250 kts | 198° |
| 2026-05-07 16:17 | 38.22169 | -0.33776 | 4508 ft | 250 kts | 198° |
| 2026-05-07 16:17 | 38.20538 | -0.34542 | 4504 ft | 251 kts | 207° |
| 2026-05-07 16:17 | 38.19256 | -0.36024 | 4501 ft | 246 kts | 239° |
| 2026-05-07 16:18 | 38.18761 | -0.38069 | 4500 ft | 243 kts | 268° |
| 2026-05-07 16:18 | 38.18725 | -0.40194 | 4507 ft | 244 kts | 271° |
| 2026-05-07 16:18 | 38.18730 | -0.42374 | 4506 ft | 244 kts | 271° |
| 2026-05-07 16:18 | 38.18738 | -0.44501 | 4514 ft | 243 kts | 272° |
| 2026-05-07 16:19 | 38.19053 | -0.46578 | 4501 ft | 240 kts | 299° |
| 2026-05-07 16:19 | 38.20048 | -0.48259 | 4512 ft | 238 kts | 314° |
| 2026-05-07 16:19 | 38.21189 | -0.49781 | 4507 ft | 238 kts | 316° |
| 2026-05-07 16:19 | 38.22352 | -0.51292 | 4507 ft | 239 kts | 316° |
| 2026-05-07 16:20 | 38.23514 | -0.52795 | 4507 ft | 239 kts | 316° |
| 2026-05-07 16:20 | 38.24678 | -0.54305 | 4508 ft | 239 kts | 316° |
| 2026-05-07 16:20 | 38.25448 | -0.55301 | 4507 ft | 238 kts | 317° |
| 2026-05-07 16:20 | 38.26612 | -0.56801 | 4504 ft | 238 kts | 317° |
| 2026-05-07 16:21 | 38.27784 | -0.58304 | 4511 ft | 239 kts | 316° |
| 2026-05-07 16:21 | 38.28955 | -0.59810 | 4507 ft | 239 kts | 316° |
| 2026-05-07 16:21 | 38.30113 | -0.61301 | 4503 ft | 232 kts | 317° |
| 2026-05-07 16:21 | 38.31224 | -0.62737 | 4420 ft | 222 kts | 317° |
| 2026-05-07 16:22 | 38.32277 | -0.64103 | 4288 ft | 211 kts | 316° |
| 2026-05-07 16:22 | 38.33260 | -0.65392 | 4161 ft | 196 kts | 316° |